Time;durP1;ratioP1;P1;durP2;ratioP2;P2;SDS_P1;SDS_P2;PMS_P1;PMS_P2;Temp;Humidity;BMP_temperature;BMP_pressure;BME280_temperature;BME280_humidity;BME280_pressure;Samples;Min_cycle;Max_cycle;Signal;HPM_P1;HPM_P2
2022/04/21 00:00:09;;;;;;;8.93;6.50;;;3.40;99.90;;;;;;5030293;28;20405;-82
2022/04/21 00:02:35;;;;;;;14.60;8.37;;;;;;;;;;5033238;28;20487;-82
2022/04/21 00:05:01;;;;;;;9.67;7.50;;;;;;;;;;5023220;28;20417;-83
2022/04/21 00:07:28;;;;;;;10.67;7.33;;;3.40;99.90;;;;;;5022686;28;20406;-83
2022/04/21 00:09:54;;;;;;;9.23;6.93;;;;;;;;;;5022362;28;20171;-83
2022/04/21 00:12:20;;;;;;;10.50;7.10;;;3.30;99.90;;;;;;5021563;28;20947;-83
2022/04/21 00:14:46;;;;;;;11.17;7.90;;;;;;;;;;5021825;28;20186;-83
2022/04/21 00:17:12;;;;;;;10.33;8.23;;;;;;;;;;5023170;28;20249;-83
2022/04/21 00:19:38;;;;;;;10.20;7.43;;;3.20;99.90;;;;;;5023642;28;20486;-83
2022/04/21 00:24:48;;;;;;;8.73;6.10;;;;;;;;;;5024369;28;20233;-83
2022/04/21 00:27:14;;;;;;;9.60;7.30;;;3.10;99.90;;;;;;5021822;28;20895;-83
2022/04/21 00:29:40;;;;;;;9.27;6.67;;;3.00;99.90;;;;;;5021644;28;20464;-83
2022/04/21 00:32:06;;;;;;;10.50;6.87;;;2.90;99.90;;;;;;5021406;28;20225;-83
2022/04/21 00:34:32;;;;;;;11.10;6.87;;;;;;;;;;5020836;28;20191;-83
2022/04/21 00:36:59;;;;;;;8.97;7.10;;;2.70;99.90;;;;;;5022244;28;20229;-83
2022/04/21 00:39:25;;;;;;;9.47;6.03;;;;;;;;;;5021753;28;20422;-83
2022/04/21 00:41:58;;;;;;;9.40;7.40;;;2.40;99.90;;;;;;5020644;28;20935;-83
2022/04/21 00:44:25;;;;;;;8.80;6.73;;;2.30;99.90;;;;;;5021181;28;20414;-82
2022/04/21 00:46:51;;;;;;;11.43;6.97;;;2.30;99.90;;;;;;5021199;28;20896;-83
2022/04/21 00:49:19;;;;;;;9.80;6.90;;;2.30;99.90;;;;;;5021630;28;20425;-83
2022/04/21 00:51:45;;;;;;;12.37;7.30;;;2.00;99.90;;;;;;5023080;28;20195;-83
2022/04/21 00:54:11;;;;;;;10.37;7.73;;;2.00;99.90;;;;;;5022120;28;20541;-83
2022/04/21 00:56:38;;;;;;;12.03;7.03;;;2.00;99.90;;;;;;5021752;28;20418;-83
2022/04/21 00:59:04;;;;;;;11.33;7.77;;;2.20;99.90;;;;;;5023454;28;20475;-83
2022/04/21 01:04:15;;;;;;;9.53;7.03;;;2.00;99.90;;;;;;5023808;28;20401;-83
2022/04/21 01:06:41;;;;;;;9.10;6.97;;;1.90;99.90;;;;;;5027572;28;20402;-82
2022/04/21 01:09:08;;;;;;;15.17;7.93;;;2.60;99.90;;;;;;5036798;28;20226;-82
2022/04/21 01:11:35;;;;;;;11.07;7.60;;;1.90;99.90;;;;;;5020483;28;20191;-83
2022/04/21 01:14:00;;;;;;;10.47;6.93;;;1.90;99.90;;;;;;5019055;28;20771;-82
2022/04/21 01:16:26;;;;;;;11.70;7.23;;;1.80;99.90;;;;;;5019156;28;20504;-83
2022/04/21 01:18:52;;;;;;;10.47;7.80;;;1.90;99.90;;;;;;5021295;28;20622;-82
2022/04/21 01:21:18;;;;;;;8.30;6.97;;;1.90;99.90;;;;;;5019523;28;20672;-83
2022/04/21 01:23:44;;;;;;;9.50;7.73;;;1.90;99.90;;;;;;5022019;28;20483;-82
2022/04/21 01:26:12;;;;;;;11.53;7.30;;;1.90;99.90;;;;;;5020586;28;20187;-82
2022/04/21 01:28:38;;;;;;;10.33;6.93;;;;;;;;;;5019284;28;20179;-83
2022/04/21 01:31:03;;;;;;;9.53;7.17;;;1.80;99.90;;;;;;5018903;28;20438;-83
2022/04/21 01:33:29;;;;;;;9.57;6.93;;;1.90;99.90;;;;;;5019665;28;20441;-82
2022/04/21 01:35:55;;;;;;;8.60;6.67;;;;;;;;;;5019161;28;20190;-82
2022/04/21 01:41:11;;;;;;;11.20;7.33;;;1.90;99.90;;;;;;5020999;28;20229;-83
2022/04/21 01:43:38;;;;;;;10.23;6.87;;;1.90;99.90;;;;;;5021197;28;20452;-83
2022/04/21 01:46:04;;;;;;;9.53;6.63;;;1.90;99.90;;;;;;5021005;28;20417;-82
2022/04/21 01:48:30;;;;;;;11.30;7.10;;;1.90;99.90;;;;;;5020375;28;20406;-82
2022/04/21 01:50:55;;;;;;;10.07;7.23;;;1.80;99.90;;;;;;5020922;28;20418;-83
2022/04/21 01:53:21;;;;;;;9.77;6.83;;;1.80;99.90;;;;;;5021480;28;20178;-83
2022/04/21 01:55:47;;;;;;;9.67;6.80;;;;;;;;;;5026293;28;20183;-82
2022/04/21 01:58:13;;;;;;;8.23;6.20;;;1.70;99.90;;;;;;5035104;28;20167;-82
2022/04/21 02:00:40;;;;;;;8.60;6.17;;;;;;;;;;5017419;28;20444;-82
2022/04/21 02:03:06;;;;;;;10.03;6.27;;;1.70;99.90;;;;;;5017174;28;20466;-82
2022/04/21 02:05:33;;;;;;;9.53;6.63;;;1.70;99.90;;;;;;5018635;28;20418;-82
2022/04/21 02:08:00;;;;;;;12.63;7.23;;;;;;;;;;5017500;28;20500;-82
2022/04/21 02:10:26;;;;;;;8.40;6.17;;;1.70;99.90;;;;;;5018307;28;20405;-82
2022/04/21 02:12:52;;;;;;;9.07;6.23;;;;;;;;;;5016298;28;20446;-82
2022/04/21 02:15:18;;;;;;;8.97;6.23;;;;;;;;;;5016564;28;20452;-82
2022/04/21 02:17:44;;;;;;;7.47;5.87;;;1.40;99.90;;;;;;5015960;28;20971;-82
2022/04/21 02:20:14;;;;;;;10.30;6.70;;;1.40;99.90;;;;;;5017012;28;20461;-82
2022/04/21 02:22:40;;;;;;;10.60;6.30;;;1.40;99.90;;;;;;5016740;28;20215;-82
2022/04/21 02:25:07;;;;;;;11.50;6.63;;;1.90;99.90;;;;;;5016353;28;20421;-82
2022/04/21 02:27:33;;;;;;;10.33;6.80;;;;;;;;;;5015286;28;20637;-81
2022/04/21 02:29:59;;;;;;;16.57;6.37;;;;;;;;;;5016313;28;20406;-82
2022/04/21 02:32:25;;;;;;;9.77;7.10;;;;;;;;;;5014551;28;20434;-83
2022/04/21 02:34:53;;;;;;;8.53;6.30;;;;;;;;;;5015178;28;20419;-82
2022/04/21 02:37:23;;;;;;;9.20;6.43;;;1.30;99.90;;;;;;5014533;28;20982;-82
2022/04/21 02:39:52;;;;;;;7.87;6.10;;;;;;;;;;5013059;28;20426;-82
2022/04/21 02:42:21;;;;;;;10.67;6.97;;;1.30;99.90;;;;;;5015940;28;20468;-82
2022/04/21 02:44:48;;;;;;;10.73;6.30;;;;;;;;;;5019277;28;20425;-82
2022/04/21 02:47:14;;;;;;;8.57;6.57;;;;;;;;;;5018570;28;20520;-82
2022/04/21 02:49:45;;;;;;;7.90;6.67;;;;;;;;;;5018788;28;20406;-83
2022/04/21 02:52:11;;;;;;;12.60;7.10;;;1.40;99.90;;;;;;5019292;28;20441;-82
2022/04/21 02:57:22;;;;;;;9.53;6.30;;;1.30;99.90;;;;;;5022131;28;20551;-82
2022/04/21 02:59:53;;;;;;;10.50;7.03;;;1.10;99.90;;;;;;5021022;28;20441;-82
2022/04/21 03:02:20;;;;;;;10.77;7.07;;;;;;;;;;5021090;28;20210;-82
2022/04/21 03:04:45;;;;;;;10.20;6.27;;;0.90;99.90;;;;;;5023002;28;20410;-82
2022/04/21 03:07:13;;;;;;;9.97;6.43;;;;;;;;;;5020561;28;20429;-82
2022/04/21 03:09:39;;;;;;;9.90;6.73;;;;;;;;;;5020813;28;20201;-82
2022/04/21 03:12:05;;;;;;;9.30;7.17;;;;;;;;;;5020867;28;20430;-83
2022/04/21 03:14:31;;;;;;;9.60;6.80;;;;;;;;;;5022554;28;20888;-82
2022/04/21 03:17:00;;;;;;;9.57;6.87;;;0.80;99.90;;;;;;5022614;28;20405;-82
2022/04/21 03:19:25;;;;;;;11.30;7.00;;;0.90;99.90;;;;;;5020899;28;20420;-82
2022/04/21 03:24:37;;;;;;;10.00;6.83;;;1.00;99.90;;;;;;5022760;28;20178;-82
2022/04/21 03:27:03;;;;;;;10.93;7.10;;;1.00;99.90;;;;;;5021083;28;20418;-82
2022/04/21 03:29:29;;;;;;;11.20;7.27;;;;;;;;;;5022592;28;20915;-82
2022/04/21 03:31:56;;;;;;;8.27;5.90;;;;;;;;;;5020600;28;20429;-82
2022/04/21 03:34:22;;;;;;;10.60;6.60;;;;;;;;;;5021170;28;20413;-82
2022/04/21 03:36:49;;;;;;;12.50;6.67;;;0.90;99.90;;;;;;5022074;28;20420;-83
2022/04/21 03:39:20;;;;;;;11.60;6.40;;;2.30;99.90;;;;;;5023187;28;20405;-82
2022/04/21 03:41:46;;;;;;;9.90;7.30;;;;;;;;;;5022835;28;20430;-82
2022/04/21 03:44:13;;;;;;;8.57;6.33;;;;;;;;;;5029685;28;20466;-82
2022/04/21 03:46:39;;;;;;;12.97;6.97;;;;;;;;;;5039581;28;20422;-82
2022/04/21 03:49:05;;;;;;;12.77;7.90;;;0.90;99.90;;;;;;5039600;28;20402;-81
2022/04/21 03:51:31;;;;;;;11.53;6.67;;;;;;;;;;5026486;28;20915;-83
2022/04/21 03:53:58;;;;;;;10.27;7.00;;;;;;;;;;5021628;28;20406;-82
2022/04/21 03:56:24;;;;;;;8.27;6.07;;;;;;;;;;5021509;28;20819;-82
2022/04/21 03:58:50;;;;;;;8.63;6.30;;;;;;;;;;5020252;28;20425;-82
2022/04/21 04:01:17;;;;;;;10.50;6.63;;;;;;;;;;5022691;28;20437;-81
2022/04/21 04:03:43;;;;;;;10.50;7.50;;;;;;;;;;5023741;28;20496;-82
2022/04/21 04:11:37;;;;;;;14.93;8.07;;;0.50;99.90;;;;;;5021918;28;20483;-82
2022/04/21 04:14:05;;;;;;;11.07;7.87;;;0.40;99.90;;;;;;5020464;28;20430;-80
2022/04/21 04:16:33;;;;;;;12.80;8.67;;;0.40;99.90;;;;;;5020781;28;20218;-82
2022/04/21 04:19:00;;;;;;;12.10;8.47;;;;;;;;;;5020901;28;20433;-82
2022/04/21 04:21:26;;;;;;;13.00;7.83;;;;;;;;;;5020227;28;20438;-83
2022/04/21 04:23:52;;;;;;;12.70;7.63;;;;;;;;;;5021584;28;20484;-82
2022/04/21 04:26:17;;;;;;;11.90;7.73;;;0.40;99.90;;;;;;5019610;28;20422;-82
2022/04/21 04:28:43;;;;;;;11.03;6.73;;;0.40;99.90;;;;;;5021858;28;20849;-82
2022/04/21 04:31:09;;;;;;;10.10;6.00;;;;;;;;;;5021953;28;20195;-82
2022/04/21 04:33:35;;;;;;;11.53;6.77;;;;;;;;;;5021301;28;20257;-82
2022/04/21 04:36:01;;;;;;;9.47;7.07;;;0.20;99.90;;;;;;5022238;28;20414;-82
2022/04/21 04:38:27;;;;;;;13.67;6.83;;;;;;;;;;5020854;28;20448;-82
2022/04/21 04:40:53;;;;;;;8.53;6.00;;;0.30;99.90;;;;;;5021416;28;20194;-83
2022/04/21 04:43:19;;;;;;;11.63;6.80;;;;;;;;;;5021150;28;20590;-82
2022/04/21 04:48:30;;;;;;;10.07;6.17;;;0.30;99.90;;;;;;5021703;28;20386;-82
2022/04/21 04:50:55;;;;;;;8.97;6.50;;;0.20;99.90;;;;;;5021534;28;20405;-82
2022/04/21 04:53:21;;;;;;;10.93;6.77;;;0.10;99.90;;;;;;5020869;28;20175;-82
2022/04/21 04:55:46;;;;;;;9.33;6.50;;;0.20;99.90;;;;;;5020199;28;20252;-82
2022/04/21 04:58:13;;;;;;;13.17;6.10;;;0.10;99.90;;;;;;5020536;28;20594;-82
2022/04/21 05:00:38;;;;;;;11.20;6.60;;;0.20;99.90;;;;;;5021832;28;20171;-82
2022/04/21 05:03:04;;;;;;;14.43;7.17;;;;;;;;;;5020448;28;20462;-83
2022/04/21 05:05:30;;;;;;;12.33;7.07;;;;;;;;;;5018725;28;20182;-83
2022/04/21 05:07:56;;;;;;;9.20;6.73;;;0.50;99.90;;;;;;5020585;28;20186;-83
2022/04/21 05:10:23;;;;;;;10.73;6.83;;;;;;;;;;5023089;28;20418;-83
2022/04/21 05:12:49;;;;;;;11.17;6.87;;;;;;;;;;5019051;28;20464;-83
2022/04/21 05:15:17;;;;;;;10.00;7.40;;;;;;;;;;5019350;28;20477;-83
2022/04/21 05:17:44;;;;;;;8.70;6.90;;;;;;;;;;5021634;28;20782;-84
2022/04/21 05:20:10;;;;;;;10.77;6.97;;;0.60;99.90;;;;;;5025331;28;20429;-83
2022/04/21 05:22:39;;;;;;;9.57;6.50;;;0.60;99.90;;;;;;5021404;28;20477;-81
2022/04/21 05:25:12;;;;;;;10.37;6.70;;;0.60;99.90;;;;;;5021643;28;20429;-81
2022/04/21 05:27:38;;;;;;;11.17;7.73;;;;;;;;;;5022599;28;20406;-84
2022/04/21 05:32:52;;;;;;;13.70;7.73;;;0.90;99.90;;;;;;5024396;28;20520;-85
2022/04/21 05:35:18;;;;;;;12.97;7.63;;;1.10;99.90;;;;;;5026212;28;20417;-83
2022/04/21 05:37:44;;;;;;;12.27;7.53;;;1.20;99.90;;;;;;5033136;28;20460;-84
2022/04/21 05:40:10;;;;;;;12.07;7.80;;;1.40;99.90;;;;;;5025267;28;20414;-83
2022/04/21 05:42:45;;;;;;;13.03;8.17;;;1.60;99.90;;;;;;5022104;28;20210;-84
2022/04/21 05:45:12;;;;;;;13.70;7.87;;;1.70;99.90;;;;;;5013729;28;20783;-83
2022/04/21 05:47:40;;;;;;;12.13;7.13;;;1.70;99.90;;;;;;5018012;28;20444;-83
2022/04/21 05:50:06;;;;;;;10.60;7.33;;;1.70;99.90;;;;;;5021724;28;20428;-83
2022/04/21 05:52:35;;;;;;;11.53;8.37;;;1.90;99.90;;;;;;5024261;28;20515;-83
2022/04/21 05:55:01;;;;;;;10.93;8.10;;;2.00;99.90;;;;;;5022657;28;20480;-84
2022/04/21 05:57:27;;;;;;;11.20;7.93;;;2.10;99.90;;;;;;5023842;28;20418;-83
2022/04/21 05:59:53;;;;;;;10.93;7.97;;;;;;;;;;5023331;28;20186;-84
2022/04/21 06:02:19;;;;;;;12.07;7.40;;;;;;;;;;5022376;28;20211;-83
2022/04/21 06:04:45;;;;;;;13.13;8.20;;;2.50;99.90;;;;;;5023826;28;20179;-83
2022/04/21 06:07:11;;;;;;;9.30;7.07;;;;;;;;;;5023223;28;20445;-83
2022/04/21 06:09:37;;;;;;;15.70;8.53;;;;;;;;;;5022935;28;20656;-81
2022/04/21 06:12:04;;;;;;;11.27;7.67;;;2.90;99.90;;;;;;5022781;28;20430;-84
2022/04/21 06:14:29;;;;;;;16.00;8.10;;;2.90;99.90;;;;;;5022612;28;20416;-83
2022/04/21 06:16:55;;;;;;;11.07;8.07;;;;;;;;;;5021409;28;20496;-83
2022/04/21 06:19:21;;;;;;;12.87;7.10;;;;;;;;;;5022235;28;20206;-83
2022/04/21 06:21:47;;;;;;;13.40;7.50;;;3.20;99.90;;;;;;5021077;28;20559;-83
2022/04/21 06:24:12;;;;;;;8.70;6.90;;;3.30;99.90;;;;;;5022169;28;20214;-84
2022/04/21 06:26:42;;;;;;;11.33;7.43;;;;;;;;;;5022820;28;20175;-83
2022/04/21 06:29:08;;;;;;;12.93;7.70;;;;;;;;;;5021684;28;20186;-84
2022/04/21 06:31:36;;;;;;;19.03;7.60;;;3.60;99.90;;;;;;5026747;28;20438;-84
2022/04/21 06:34:03;;;;;;;12.50;7.53;;;;;;;;;;5027551;28;20193;-84
2022/04/21 06:36:29;;;;;;;10.47;7.83;;;;;;;;;;5028416;28;20904;-84
2022/04/21 06:38:54;;;;;;;13.93;7.83;;;3.90;99.90;;;;;;5023394;28;20538;-83
2022/04/21 06:41:20;;;;;;;19.40;7.80;;;4.10;99.90;;;;;;5023677;28;20473;-83
2022/04/21 06:49:14;;;;;;;14.13;8.07;;;4.60;99.90;;;;;;5025470;28;20451;-84
2022/04/21 06:51:40;;;;;;;12.27;8.17;;;4.80;99.90;;;;;;5025103;28;20524;-84
2022/04/21 06:54:06;;;;;;;12.63;7.97;;;4.90;99.90;;;;;;5022391;28;20175;-84
2022/04/21 06:56:32;;;;;;;13.30;8.27;;;5.00;99.90;;;;;;5024597;28;20425;-83
2022/04/21 06:58:58;;;;;;;13.47;7.53;;;5.00;99.90;;;;;;5023997;28;20183;-84
2022/04/21 07:01:23;;;;;;;9.47;7.50;;;5.00;99.90;;;;;;5023079;28;20195;-84
2022/04/21 07:03:49;;;;;;;10.80;7.77;;;5.10;99.90;;;;;;5023472;28;20266;-84
2022/04/21 07:06:15;;;;;;;12.10;7.67;;;5.20;99.90;;;;;;5025680;28;20603;-84
2022/04/21 07:08:41;;;;;;;9.30;7.73;;;5.40;99.90;;;;;;5026019;28;20171;-83
2022/04/21 07:11:06;;;;;;;12.60;8.53;;;5.60;99.90;;;;;;5024243;28;20211;-84
2022/04/21 07:13:32;;;;;;;11.30;7.93;;;5.80;99.90;;;;;;5022448;28;20242;-83
2022/04/21 07:15:58;;;;;;;14.90;8.60;;;5.90;99.90;;;;;;5022304;28;20175;-84
2022/04/21 07:18:24;;;;;;;11.77;8.33;;;6.00;99.90;;;;;;5024896;28;20176;-84
2022/04/21 07:20:49;;;;;;;11.53;7.50;;;6.10;99.90;;;;;;5024617;28;20750;-84
2022/04/21 07:23:15;;;;;;;11.80;7.70;;;6.30;99.90;;;;;;5025650;28;20204;-82
2022/04/21 07:25:42;;;;;;;9.83;6.90;;;6.50;99.90;;;;;;5025130;28;20238;-82
2022/04/21 07:28:07;;;;;;;10.13;6.73;;;6.70;99.90;;;;;;5025821;28;20198;-82
2022/04/21 07:30:33;;;;;;;12.17;7.27;;;7.10;99.90;;;;;;5025763;28;20180;-83
2022/04/21 07:32:59;;;;;;;14.70;6.97;;;7.70;99.90;;;;;;5026241;28;20199;-83
2022/04/21 07:35:24;;;;;;;8.63;6.47;;;8.40;99.90;;;;;;5024446;28;20186;-82
2022/04/21 07:37:50;;;;;;;9.60;6.43;;;8.90;99.90;;;;;;5025740;28;20196;-82
2022/04/21 07:40:16;;;;;;;9.43;6.03;;;9.40;99.90;;;;;;5023822;28;20184;-82
2022/04/21 07:42:44;;;;;;;8.27;6.00;;;9.90;99.90;;;;;;5024707;28;20401;-83
2022/04/21 07:45:10;;;;;;;9.67;6.50;;;10.70;99.90;;;;;;5029739;28;20242;-82
2022/04/21 07:47:36;;;;;;;8.17;6.50;;;11.40;99.90;;;;;;5036974;28;20174;-82
2022/04/21 07:50:02;;;;;;;10.90;6.33;;;12.10;99.90;;;;;;5036754;28;20179;-82
2022/04/21 07:55:17;;;;;;;8.40;6.17;;;13.10;94.90;;;;;;5028967;28;20245;-83
2022/04/21 07:57:44;;;;;;;10.20;6.60;;;13.40;91.80;;;;;;5025999;28;20186;-82
2022/04/21 08:00:11;;;;;;;6.43;5.20;;;13.40;92.20;;;;;;5023473;28;20186;-83
2022/04/21 08:02:42;;;;;;;8.30;5.83;;;13.70;90.80;;;;;;5024813;28;20260;-82
2022/04/21 08:05:10;;;;;;;8.37;5.83;;;13.80;90.30;;;;;;5023050;28;20201;-83
2022/04/21 08:07:36;;;;;;;8.33;6.30;;;13.90;87.90;;;;;;5024404;28;20175;-82
2022/04/21 08:10:09;;;;;;;8.30;5.73;;;14.20;85.40;;;;;;5023399;28;20259;-82
2022/04/21 08:12:40;;;;;;;8.27;5.93;;;14.40;83.10;;;;;;5023913;28;20733;-83
2022/04/21 08:15:10;;;;;;;10.87;5.40;;;15.00;81.40;;;;;;5022854;28;20301;-82
2022/04/21 08:17:37;;;;;;;9.00;5.37;;;15.10;77.50;;;;;;5024798;28;20206;-82
2022/04/21 08:20:10;;;;;;;6.87;5.80;;;15.20;78.90;;;;;;5021921;28;20200;-82
2022/04/21 08:22:38;;;;;;;12.83;5.73;;;15.40;73.50;;;;;;5022133;28;20681;-83
2022/04/21 08:33:19;;;;;;;9.20;5.60;;;15.60;71.50;;;;;;5023515;28;20666;-83
2022/04/21 08:35:46;;;;;;;10.17;5.63;;;15.70;70.20;;;;;;5020963;28;20185;-82
2022/04/21 08:38:13;;;;;;;8.80;5.20;;;16.10;72.60;;;;;;5021803;28;20683;-83
2022/04/21 08:40:50;;;;;;;10.87;5.37;;;16.50;65.30;;;;;;5021530;28;20247;-83
2022/04/21 08:43:16;;;;;;;7.03;4.77;;;16.30;66.60;;;;;;5021048;28;20619;-83
2022/04/21 08:45:47;;;;;;;5.63;4.97;;;16.10;65.00;;;;;;5024087;28;20245;-83
2022/04/21 08:48:14;;;;;;;7.90;5.13;;;16.10;68.50;;;;;;5016219;28;20184;-83
2022/04/21 08:50:45;;;;;;;7.00;5.60;;;16.60;67.10;;;;;;5015182;28;20186;-83
2022/04/21 08:53:16;;;;;;;5.33;4.83;;;16.60;68.90;;;;;;5013322;28;20202;-84
2022/04/21 08:55:44;;;;;;;6.53;4.97;;;16.70;68.40;;;;;;5014181;28;20177;-84
2022/04/21 08:58:11;;;;;;;6.90;5.70;;;17.10;62.20;;;;;;5024711;28;20186;-83
2022/04/21 09:00:37;;;;;;;5.97;5.30;;;16.90;63.40;;;;;;5024924;28;20179;-83
2022/04/21 09:03:08;;;;;;;5.90;5.30;;;16.50;62.70;;;;;;5025200;28;20221;-83
2022/04/21 09:05:35;;;;;;;5.30;4.80;;;16.40;65.40;;;;;;5024472;28;20167;-84
2022/04/21 09:08:00;;;;;;;5.97;5.10;;;16.60;63.30;;;;;;5025632;28;20216;-84
2022/04/21 09:10:28;;;;;;;7.30;5.03;;;16.40;59.60;;;;;;5025684;28;20179;-84
2022/04/21 09:12:56;;;;;;;7.90;5.17;;;16.40;61.40;;;;;;5023529;28;20191;-84
2022/04/21 09:15:27;;;;;;;6.17;5.23;;;16.40;64.30;;;;;;5024847;28;20179;-83
2022/04/21 09:17:57;;;;;;;5.87;5.27;;;16.50;64.60;;;;;;5023182;28;20210;-84
2022/04/21 09:20:33;;;;;;;6.17;5.57;;;16.40;60.70;;;;;;5023620;28;20179;-84
2022/04/21 09:23:00;;;;;;;8.67;5.63;;;16.20;60.70;;;;;;5023305;28;20232;-84
2022/04/21 09:25:27;;;;;;;6.33;5.13;;;15.90;60.00;;;;;;5024333;28;20221;-84
2022/04/21 09:27:54;;;;;;;7.70;5.37;;;16.20;60.40;;;;;;5022969;28;20641;-84
2022/04/21 09:30:20;;;;;;;7.90;5.10;;;16.60;59.90;;;;;;5023092;28;20179;-84
2022/04/21 09:32:58;;;;;;;6.67;5.03;;;16.80;58.40;;;;;;5023752;28;20601;-85
2022/04/21 09:35:26;;;;;;;6.70;5.10;;;16.40;59.60;;;;;;5024835;28;20180;-85
2022/04/21 09:37:54;;;;;;;7.63;4.87;;;16.20;57.90;;;;;;5025494;28;20193;-85
2022/04/21 09:40:22;;;;;;;6.67;5.57;;;16.30;59.70;;;;;;5021641;28;20185;-84
2022/04/21 09:42:59;;;;;;;6.00;5.30;;;16.40;58.90;;;;;;5025773;28;20202;-85
2022/04/21 09:48:23;;;;;;;7.07;5.13;;;16.60;57.70;;;;;;5027026;28;20174;-85
2022/04/21 09:50:51;;;;;;;5.83;4.57;;;16.60;57.80;;;;;;5026151;28;20179;-85
2022/04/21 09:53:23;;;;;;;5.97;5.23;;;17.00;61.10;;;;;;5031386;28;20175;-82
2022/04/21 09:55:50;;;;;;;6.87;5.30;;;17.20;55.10;;;;;;5035805;28;20174;-84
2022/04/21 09:58:17;;;;;;;6.67;4.40;;;17.10;56.80;;;;;;5035632;28;20179;-83
2022/04/21 10:00:43;;;;;;;5.37;4.70;;;16.70;52.80;;;;;;5027978;28;20186;-85
2022/04/21 10:03:10;;;;;;;6.10;5.50;;;16.60;55.70;;;;;;5024287;28;20214;-85
2022/04/21 10:05:37;;;;;;;5.63;5.07;;;16.70;59.20;;;;;;5029924;28;20166;-85
2022/04/21 10:08:07;;;;;;;6.83;5.73;;;16.90;56.40;;;;;;5040108;28;20190;-85
2022/04/21 10:10:34;;;;;;;5.13;4.63;;;17.40;56.10;;;;;;5028693;28;20190;-85
2022/04/21 10:13:02;;;;;;;5.87;4.80;;;17.00;55.20;;;;;;5028987;28;20195;-85
2022/04/21 10:15:29;;;;;;;5.20;4.70;;;16.70;54.70;;;;;;5027403;28;20181;-85
2022/04/21 10:17:55;;;;;;;6.80;4.60;;;17.00;54.40;;;;;;5027110;28;20189;-84
2022/04/21 10:20:25;;;;;;;5.17;4.57;;;16.90;55.60;;;;;;5026399;28;20190;-85
2022/04/21 10:22:52;;;;;;;5.43;4.50;;;17.10;56.10;;;;;;5024980;28;20219;-85
2022/04/21 10:25:23;;;;;;;6.77;5.47;;;17.00;54.50;;;;;;5022154;28;20186;-84
2022/04/21 10:27:49;;;;;;;5.90;5.20;;;17.00;53.50;;;;;;5026377;28;20176;-85
2022/04/21 10:30:29;;;;;;;7.07;5.07;;;16.90;55.50;;;;;;5029758;28;20172;-85
2022/04/21 10:33:03;;;;;;;4.90;4.27;;;17.00;56.60;;;;;;5023917;28;20235;-85
2022/04/21 10:35:29;;;;;;;5.10;4.60;;;17.10;54.20;;;;;;5020806;28;20538;-85
2022/04/21 10:38:16;;;;;;;4.90;4.50;;;17.10;54.20;;;;;;5019905;28;20198;-84
2022/04/21 10:41:02;;;;;;;5.57;4.93;;;17.50;54.60;;;;;;5020337;28;20183;-84
2022/04/21 10:43:50;;;;;;;5.77;5.13;;;17.30;54.60;;;;;;5023206;28;20250;-84
2022/04/21 10:46:21;;;;;;;7.20;5.40;;;17.50;57.10;;;;;;5024693;28;20279;-84
2022/04/21 10:48:47;;;;;;;6.80;6.10;;;17.40;56.30;;;;;;5027878;28;20195;-84
2022/04/21 10:57:12;;;;;;;7.57;5.70;;;17.40;60.60;;;;;;5027855;28;20212;-84
2022/04/21 10:57:46;;;;;;;5.73;5.20;;;17.40;54.10;;;;;;5018142;28;20197;-81
2022/04/21 11:00:29;;;;;;;5.20;4.70;;;17.50;54.00;;;;;;5025801;28;20184;-82
2022/04/21 11:03:09;;;;;;;7.87;4.20;;;17.80;55.60;;;;;;5026014;28;20209;-81
2022/04/21 11:05:37;;;;;;;5.80;5.30;;;17.90;55.80;;;;;;5028828;28;20190;-81
2022/04/21 11:08:10;;;;;;;5.60;4.90;;;18.40;55.10;;;;;;5027400;28;20187;-81
2022/04/21 11:10:38;;;;;;;7.10;5.83;;;19.10;55.70;;;;;;5026409;28;20186;-81
2022/04/21 11:13:09;;;;;;;9.63;5.37;;;19.30;52.30;;;;;;5027149;28;20568;-80
2022/04/21 11:15:53;;;;;;;6.23;5.57;;;19.10;52.80;;;;;;5026429;28;20197;-82
2022/04/21 11:18:19;;;;;;;6.47;5.30;;;18.90;54.40;;;;;;5026024;28;20643;-82
2022/04/21 11:20:47;;;;;;;5.70;5.20;;;18.80;54.30;;;;;;5028189;28;20252;-81
2022/04/21 11:23:45;;;;;;;8.53;5.17;;;18.80;52.40;;;;;;5026812;28;20271;-82
2022/04/21 11:26:12;;;;;;;6.20;5.00;;;18.80;53.10;;;;;;5028620;28;20261;-82
2022/04/21 11:28:46;;;;;;;5.67;5.07;;;19.10;56.90;;;;;;5028884;28;20223;-82
2022/04/21 11:31:13;;;;;;;7.93;4.73;;;19.50;53.40;;;;;;5029091;28;20209;-82
2022/04/21 11:33:45;;;;;;;6.10;5.50;;;19.60;51.50;;;;;;5028726;28;20655;-82
2022/04/21 11:36:15;;;;;;;6.20;5.60;;;19.50;52.70;;;;;;5029435;28;20179;-82
2022/04/21 11:38:43;;;;;;;6.73;5.23;;;19.90;51.70;;;;;;5027596;28;20525;-85
2022/04/21 11:41:10;;;;;;;5.73;4.87;;;20.30;50.30;;;;;;5027633;28;20204;-86
2022/04/21 11:43:37;;;;;;;5.23;4.70;;;20.10;49.70;;;;;;5028103;28;20209;-85
2022/04/21 11:46:05;;;;;;;7.93;5.67;;;19.70;51.60;;;;;;5029285;28;20185;-86
2022/04/21 11:48:37;;;;;;;6.27;5.63;;;20.00;50.50;;;;;;5027407;28;20532;-85
2022/04/21 11:51:03;;;;;;;5.87;5.37;;;20.50;51.20;;;;;;5029168;28;20177;-86
2022/04/21 11:53:34;;;;;;;6.87;5.43;;;20.70;50.00;;;;;;5033226;28;20239;-84
2022/04/21 11:56:00;;;;;;;5.83;5.23;;;21.00;52.30;;;;;;5034422;28;20182;-85
2022/04/21 11:58:30;;;;;;;6.27;5.20;;;21.10;52.10;;;;;;5024201;28;20185;-86
2022/04/21 12:06:40;;;;;;;5.60;5.00;;;20.90;50.30;;;;;;5028101;28;20246;-85
2022/04/21 12:09:08;;;;;;;5.63;5.13;;;21.00;51.10;;;;;;5024982;28;20259;-85
2022/04/21 12:11:34;;;;;;;5.30;4.80;;;21.60;48.90;;;;;;5024915;28;20233;-85
2022/04/21 12:14:00;;;;;;;5.20;4.70;;;21.50;47.30;;;;;;5025093;28;20179;-85
2022/04/21 12:16:49;;;;;;;5.90;4.87;;;21.10;47.30;;;;;;5025086;28;20181;-84
2022/04/21 12:19:34;;;;;;;8.07;5.10;;;21.40;49.30;;;;;;5025551;28;20188;-85
2022/04/21 12:22:20;;;;;;;6.23;5.63;;;22.00;49.30;;;;;;5026145;28;20191;-85
2022/04/21 12:24:54;;;;;;;5.50;5.00;;;22.40;49.10;;;;;;5025209;28;20186;-85
2022/04/21 12:27:35;;;;;;;5.70;5.10;;;22.60;45.80;;;;;;5025392;28;20182;-85
2022/04/21 12:30:06;;;;;;;6.57;5.10;;;22.10;45.80;;;;;;5027104;28;20238;-85
2022/04/21 12:32:33;;;;;;;5.13;4.63;;;21.70;45.90;;;;;;5024884;28;20210;-85
2022/04/21 12:35:06;;;;;;;5.13;4.63;;;21.80;47.60;;;;;;5024080;28;20189;-85
2022/04/21 12:37:37;;;;;;;5.23;4.73;;;22.00;45.40;;;;;;5024507;28;20195;-85
2022/04/21 12:40:06;;;;;;;5.30;4.23;;;22.20;48.70;;;;;;5024754;28;20209;-85
2022/04/21 12:42:32;;;;;;;7.03;5.97;;;22.10;45.20;;;;;;5025095;28;20566;-85
2022/04/21 12:44:59;;;;;;;5.27;4.50;;;22.10;44.50;;;;;;5027142;28;20182;-85
2022/04/21 12:47:26;;;;;;;5.87;4.60;;;22.70;46.20;;;;;;5027335;28;20175;-85
2022/04/21 12:50:08;;;;;;;5.67;5.13;;;22.80;46.10;;;;;;5027057;28;20181;-85
2022/04/21 12:52:41;;;;;;;9.23;5.60;;;22.80;45.70;;;;;;5025646;28;20198;-85
2022/04/21 12:55:19;;;;;;;5.97;5.37;;;22.50;45.10;;;;;;5027986;28;20179;-85
2022/04/21 12:58:05;;;;;;;5.73;5.20;;;22.30;44.60;;;;;;5028883;28;20169;-85
2022/04/21 13:00:32;;;;;;;7.00;5.23;;;22.20;44.10;;;;;;5028086;28;20205;-85
2022/04/21 13:02:59;;;;;;;6.23;5.10;;;22.20;44.80;;;;;;5028749;28;20210;-85
2022/04/21 13:05:25;;;;;;;6.07;5.33;;;22.50;43.20;;;;;;5027637;28;20222;-85
2022/04/21 13:07:51;;;;;;;5.60;5.10;;;22.30;44.30;;;;;;5028386;28;20182;-85
2022/04/21 13:10:16;;;;;;;6.37;5.03;;;22.30;43.80;;;;;;5028253;28;20172;-85
2022/04/21 13:12:43;;;;;;;6.20;5.50;;;21.90;44.20;;;;;;5028041;28;20233;-85
2022/04/21 13:15:09;;;;;;;6.23;5.63;;;22.20;46.30;;;;;;5029106;28;20181;-85
2022/04/21 13:17:35;;;;;;;9.20;5.50;;;22.20;43.00;;;;;;5025801;28;20389;-85
2022/04/21 13:20:00;;;;;;;6.17;4.70;;;22.20;45.20;;;;;;5025880;28;20198;-84
2022/04/21 13:22:26;;;;;;;6.90;4.60;;;22.80;43.90;;;;;;5024572;28;20641;-85
2022/04/21 13:24:51;;;;;;;5.23;4.73;;;22.70;42.30;;;;;;5026244;28;20514;-85
2022/04/21 13:27:21;;;;;;;5.40;4.90;;;22.30;44.60;;;;;;5028351;28;20185;-84
2022/04/21 13:29:47;;;;;;;5.10;4.60;;;22.20;42.90;;;;;;5027632;28;20241;-85
2022/04/21 13:34:57;;;;;;;5.67;5.07;;;22.00;43.60;;;;;;5027988;28;20183;-85
2022/04/21 13:37:23;;;;;;;5.53;5.03;;;22.30;46.20;;;;;;5028316;28;20223;-85
2022/04/21 13:39:48;;;;;;;5.83;5.23;;;22.80;42.90;;;;;;5027664;28;20182;-85
2022/04/21 13:42:14;;;;;;;5.10;4.60;;;22.90;43.00;;;;;;5028820;28;20224;-84
2022/04/21 13:44:40;;;;;;;5.50;5.00;;;22.60;41.90;;;;;;5028628;28;20184;-85
2022/04/21 13:47:06;;;;;;;5.07;4.57;;;22.40;41.80;;;;;;5029281;28;20180;-85
2022/04/21 13:49:32;;;;;;;6.60;4.90;;;22.50;44.90;;;;;;5028040;28;20181;-85
2022/04/21 13:51:59;;;;;;;5.03;4.53;;;23.00;43.10;;;;;;5029148;28;20200;-85
2022/04/21 13:54:24;;;;;;;5.90;4.50;;;23.10;42.90;;;;;;5027272;28;20185;-85
2022/04/21 13:56:50;;;;;;;5.73;4.77;;;23.80;42.00;;;;;;5029168;28;20187;-84
2022/04/21 13:59:16;;;;;;;7.63;4.80;;;23.20;41.40;;;;;;5030409;28;20181;-84
2022/04/21 14:01:42;;;;;;;5.07;4.40;;;22.50;42.10;;;;;;5033501;28;20609;-84
2022/04/21 14:04:09;;;;;;;6.27;4.87;;;22.60;42.40;;;;;;5024130;28;20201;-84
2022/04/21 14:06:35;;;;;;;5.30;4.20;;;22.80;42.80;;;;;;5023904;28;20171;-84